createdAt,value
2018-07-19T00:00:26.433Z,68.10
2018-07-19T00:02:54.789Z,68.50
2018-07-19T00:05:23.145Z,68.80
2018-07-19T00:07:51.864Z,68.60
2018-07-19T00:10:20.241Z,68.90
2018-07-19T00:12:48.608Z,68.70
2018-07-19T00:15:16.994Z,68.60
2018-07-19T00:17:45.375Z,68.60
2018-07-19T00:20:13.792Z,68.70
2018-07-19T00:22:42.148Z,69.50
2018-07-19T00:25:10.549Z,68.90
2018-07-19T00:27:38.878Z,68.80
2018-07-19T00:30:07.233Z,68.70
2018-07-19T00:32:35.550Z,68.80
2018-07-19T00:35:03.988Z,69.20
2018-07-19T00:37:32.397Z,69.50
2018-07-19T00:40:00.758Z,69.20
2018-07-19T00:42:29.461Z,69.20
2018-07-19T00:44:57.857Z,69.20
2018-07-19T00:47:26.236Z,69.40
2018-07-19T00:49:54.952Z,69.60
2018-07-19T00:52:23.466Z,70.10
2018-07-19T00:54:52.046Z,70.00
2018-07-19T00:57:20.488Z,70.20
2018-07-19T00:59:49.940Z,70.30
2018-07-19T01:02:18.361Z,70.60
2018-07-19T01:04:46.724Z,70.80
2018-07-19T01:07:15.088Z,71.10
2018-07-19T01:09:43.458Z,71.20
2018-07-19T01:12:11.814Z,71.00
2018-07-19T01:14:40.265Z,71.00
2018-07-19T01:17:08.633Z,71.10
2018-07-19T01:19:37.009Z,71.10
2018-07-19T01:22:05.451Z,71.60
2018-07-19T01:24:33.896Z,71.30
2018-07-19T01:27:02.356Z,71.00
2018-07-19T01:29:30.708Z,71.30
2018-07-19T01:31:59.197Z,71.60
2018-07-19T01:34:27.637Z,71.30
2018-07-19T01:36:56.059Z,71.30
2018-07-19T01:39:24.476Z,73.00
2018-07-19T01:42:29.501Z,74.60
2018-07-19T01:44:57.937Z,74.40
2018-07-19T01:47:26.633Z,74.60
2018-07-19T01:49:55.063Z,74.70
2018-07-19T01:52:23.436Z,74.50
2018-07-19T01:57:20.528Z,74.70
2018-07-19T01:59:49.519Z,75.20
2018-07-19T02:02:19.236Z,75.20
2018-07-19T02:04:47.781Z,76.50
2018-07-19T02:07:16.203Z,77.30
2018-07-19T02:09:44.601Z,77.30
2018-07-19T02:12:12.969Z,77.60
2018-07-19T02:14:41.362Z,77.90
2018-07-19T02:17:10.116Z,77.70
2018-07-19T02:19:38.476Z,77.40
2018-07-19T02:22:07.246Z,77.00
2018-07-19T02:24:35.972Z,76.80
2018-07-19T02:27:04.654Z,77.60
2018-07-19T02:29:33.004Z,77.70
2018-07-19T02:32:02.270Z,78.10
2018-07-19T02:34:31.365Z,77.30
2018-07-19T02:37:00.402Z,78.40
2018-07-19T02:39:30.541Z,77.60
2018-07-19T02:41:59.157Z,77.70
2018-07-19T02:44:27.966Z,77.50
2018-07-19T02:46:56.434Z,77.30
2018-07-19T02:49:24.954Z,77.20
2018-07-19T02:51:53.442Z,77.70
2018-07-19T02:54:21.958Z,77.80
2018-07-19T02:56:50.703Z,78.10
2018-07-19T02:59:19.549Z,78.20
2018-07-19T03:01:48.049Z,78.50
2018-07-19T03:04:16.494Z,78.60
2018-07-19T03:06:46.704Z,78.90
2018-07-19T03:09:15.157Z,79.00
2018-07-19T03:11:43.570Z,78.90
2018-07-19T03:14:11.960Z,78.50
2018-07-19T03:16:40.422Z,78.10
2018-07-19T03:19:08.869Z,77.70
2018-07-19T03:21:37.267Z,77.40
2018-07-19T03:24:05.773Z,77.70
2018-07-19T03:26:34.208Z,77.70
2018-07-19T03:29:02.694Z,78.00
2018-07-19T03:31:31.071Z,77.70
2018-07-19T03:33:59.460Z,77.60
2018-07-19T03:36:27.828Z,77.60
2018-07-19T03:38:56.546Z,77.10
2018-07-19T03:41:25.031Z,77.30
2018-07-19T03:43:53.505Z,77.10
2018-07-19T03:46:21.938Z,77.60
2018-07-19T03:48:50.322Z,77.60
2018-07-19T03:51:18.721Z,77.70
2018-07-19T03:53:47.101Z,78.10
2018-07-19T03:58:43.929Z,78.50
2018-07-19T04:01:12.403Z,78.70
2018-07-19T04:03:40.944Z,78.50
2018-07-19T04:06:09.545Z,78.50
2018-07-19T04:08:37.948Z,78.70
2018-07-19T04:11:06.278Z,78.40
2018-07-19T04:13:34.670Z,79.00
2018-07-19T04:16:03.069Z,79.20
2018-07-19T04:18:31.451Z,78.40
2018-07-19T04:20:59.798Z,78.80
2018-07-19T04:23:28.193Z,79.00
2018-07-19T04:25:56.640Z,79.00
2018-07-19T04:28:25.041Z,79.50
2018-07-19T04:30:53.476Z,79.00
2018-07-19T04:33:21.967Z,79.20
2018-07-19T04:35:50.420Z,79.40
2018-07-19T04:38:18.886Z,79.60
2018-07-19T04:40:47.308Z,79.50
2018-07-19T04:43:16.070Z,79.60
2018-07-19T04:45:44.454Z,79.30
2018-07-19T04:48:12.896Z,79.30
2018-07-19T04:50:41.265Z,79.30
2018-07-19T04:53:09.592Z,78.50
2018-07-19T04:55:37.955Z,79.00
2018-07-19T04:58:06.382Z,79.00
2018-07-19T05:00:35.040Z,78.50
2018-07-19T05:03:03.537Z,78.80
2018-07-19T05:05:31.951Z,78.80
2018-07-19T05:08:00.303Z,78.70
2018-07-19T05:10:28.991Z,79.00
2018-07-19T05:12:57.581Z,79.40
2018-07-19T05:15:25.972Z,79.00
2018-07-19T05:17:54.573Z,78.70
2018-07-19T05:20:22.936Z,78.80
2018-07-19T05:22:51.393Z,79.20
2018-07-19T05:25:20.120Z,78.80
2018-07-19T05:27:48.524Z,78.80
2018-07-19T05:30:16.926Z,78.70
2018-07-19T05:32:45.284Z,78.40
2018-07-19T05:35:13.719Z,78.80
2018-07-19T05:37:42.138Z,78.30
2018-07-19T05:40:10.573Z,78.60
2018-07-19T05:42:39.033Z,78.20
2018-07-19T05:45:07.420Z,77.60
2018-07-19T05:47:35.813Z,77.40
2018-07-19T05:50:04.552Z,77.60
2018-07-19T05:52:32.920Z,76.80
2018-07-19T05:55:01.310Z,77.40
2018-07-19T05:57:29.743Z,77.30
2018-07-19T05:59:58.164Z,77.00
2018-07-19T06:02:26.593Z,76.00
2018-07-19T06:04:55.006Z,76.50
2018-07-19T06:07:23.473Z,76.00
2018-07-19T06:09:51.905Z,76.10
2018-07-19T06:12:20.440Z,75.80
2018-07-19T06:17:16.951Z,75.60
2018-07-19T06:19:45.555Z,75.40
2018-07-19T06:22:14.117Z,75.10
2018-07-19T06:24:42.828Z,74.20
2018-07-19T06:27:11.222Z,74.60
2018-07-19T06:29:39.592Z,74.00
2018-07-19T06:32:07.980Z,74.30
2018-07-19T06:34:36.396Z,73.90
2018-07-19T06:37:05.188Z,73.50
2018-07-19T06:42:01.869Z,73.30
2018-07-19T06:44:30.374Z,73.40
2018-07-19T06:46:58.758Z,72.90
2018-07-19T06:49:27.210Z,72.90
2018-07-19T06:51:55.604Z,72.50
2018-07-19T06:54:24.269Z,72.30
2018-07-19T06:56:52.643Z,70.70
2018-07-19T06:59:21.102Z,70.50
2018-07-19T07:01:49.469Z,68.60
2018-07-19T07:04:17.953Z,69.10
2018-07-19T07:06:46.652Z,68.80
2018-07-19T07:09:15.266Z,68.50
2018-07-19T07:11:43.988Z,67.50
2018-07-19T07:16:41.161Z,66.10
2018-07-19T07:19:09.616Z,65.90
2018-07-19T07:21:37.979Z,65.00
2018-07-19T07:24:06.342Z,64.70
2018-07-19T07:26:34.959Z,64.60
2018-07-19T07:29:03.660Z,63.30
2018-07-19T07:31:32.023Z,63.30
2018-07-19T07:34:00.425Z,63.30
2018-07-19T07:36:28.821Z,62.50
2018-07-19T07:38:57.223Z,61.70
2018-07-19T07:41:25.556Z,61.60
2018-07-19T07:43:53.980Z,60.80
2018-07-19T07:46:22.346Z,61.80
2018-07-19T07:48:50.746Z,61.20
2018-07-19T07:53:47.265Z,61.80
2018-07-19T07:56:15.672Z,60.10
2018-07-19T07:58:44.103Z,60.90
2018-07-19T08:01:12.489Z,59.20
2018-07-19T08:03:41.768Z,59.50
2018-07-19T08:08:38.271Z,58.80
2018-07-19T08:11:07.676Z,58.30
2018-07-19T08:13:36.112Z,57.70
2018-07-19T08:16:05.577Z,58.40
2018-07-19T08:18:33.985Z,57.60
2018-07-19T08:21:02.403Z,57.60
2018-07-19T08:23:30.791Z,57.80
2018-07-19T08:25:59.182Z,57.10
2018-07-19T08:28:27.576Z,56.60
2018-07-19T08:30:56.010Z,55.70
2018-07-19T08:33:24.448Z,55.90
2018-07-19T08:35:52.925Z,56.10
2018-07-19T08:38:21.259Z,56.60
2018-07-19T08:40:49.687Z,56.50
2018-07-19T08:43:18.127Z,55.20
2018-07-19T08:45:46.531Z,55.10
2018-07-19T08:48:14.888Z,53.60
2018-07-19T08:50:44.314Z,54.70
2018-07-19T08:53:12.714Z,55.70
2018-07-19T08:55:41.105Z,56.00
2018-07-19T08:58:09.501Z,54.40
2018-07-19T09:00:38.285Z,54.80
2018-07-19T09:03:06.661Z,55.20
2018-07-19T09:05:35.120Z,55.10
2018-07-19T09:08:03.555Z,56.20
2018-07-19T09:10:32.250Z,56.30
2018-07-19T09:13:00.658Z,56.00
2018-07-19T09:15:29.086Z,54.80
2018-07-19T09:17:57.461Z,55.80
2018-07-19T09:22:54.887Z,53.50
2018-07-19T09:25:23.304Z,52.00
2018-07-19T09:27:51.773Z,51.80
2018-07-19T09:30:20.454Z,52.60
2018-07-19T09:32:48.971Z,52.30
2018-07-19T09:35:17.398Z,52.70
2018-07-19T09:37:45.950Z,52.30
2018-07-19T09:40:14.527Z,52.20
2018-07-19T09:42:47.955Z,52.10
2018-07-19T09:45:16.476Z,50.80
2018-07-19T09:47:44.949Z,50.10
2018-07-19T09:50:13.421Z,49.40
2018-07-19T09:52:42.076Z,48.50
2018-07-19T09:55:10.552Z,50.20
2018-07-19T09:57:39.222Z,49.00
2018-07-19T10:00:07.771Z,48.80
2018-07-19T10:02:36.371Z,48.80
2018-07-19T10:05:05.312Z,50.40
2018-07-19T10:07:34.197Z,50.20
2018-07-19T10:10:02.661Z,48.80
2018-07-19T10:12:31.118Z,46.60
2018-07-19T10:14:59.560Z,47.00
2018-07-19T10:19:56.231Z,46.20
2018-07-19T10:22:24.697Z,46.90
2018-07-19T10:24:53.183Z,48.00
2018-07-19T10:27:21.637Z,47.20
2018-07-19T10:29:50.045Z,47.70
2018-07-19T10:32:18.763Z,47.70
2018-07-19T10:34:47.036Z,47.30
2018-07-19T10:37:15.501Z,47.00
2018-07-19T10:39:43.956Z,47.10
2018-07-19T10:42:12.893Z,46.40
2018-07-19T10:44:41.413Z,44.70
2018-07-19T10:47:09.958Z,43.70
2018-07-19T10:49:40.469Z,45.40
2018-07-19T10:52:08.967Z,45.20
2018-07-19T10:54:37.405Z,45.70
2018-07-19T10:57:06.068Z,45.90
2018-07-19T10:59:34.653Z,44.90
2018-07-19T11:02:03.093Z,44.90
2018-07-19T11:04:31.725Z,45.60
2018-07-19T11:07:00.376Z,45.10
2018-07-19T11:09:28.990Z,44.90
2018-07-19T11:11:57.705Z,42.50
2018-07-19T11:14:26.643Z,42.30
2018-07-19T11:16:55.283Z,41.00
2018-07-19T11:19:23.770Z,40.40
2018-07-19T11:24:20.373Z,38.30
2018-07-19T11:26:48.837Z,37.90
2018-07-19T11:29:17.306Z,38.00
2018-07-19T11:31:45.713Z,37.90
2018-07-19T11:34:14.204Z,36.70
2018-07-19T11:36:42.688Z,37.30
2018-07-19T11:39:11.190Z,38.80
2018-07-19T11:41:40.312Z,40.90
2018-07-19T11:44:08.813Z,41.10
2018-07-19T11:48:06.448Z,41.60
2018-07-19T11:50:35.326Z,42.50
2018-07-19T11:53:04.166Z,42.00
2018-07-19T11:55:32.599Z,42.50
2018-07-19T11:58:01.016Z,43.30
2018-07-19T12:00:29.457Z,43.10
2018-07-19T12:02:57.915Z,43.30
2018-07-19T12:05:26.393Z,43.40
2018-07-19T12:07:54.812Z,43.30
2018-07-19T12:10:23.932Z,42.70
2018-07-19T12:12:52.510Z,43.40
2018-07-19T12:15:20.999Z,42.50
2018-07-19T12:17:49.433Z,41.50
2018-07-19T12:20:17.855Z,40.50
2018-07-19T12:22:46.463Z,39.80
2018-07-19T12:25:14.922Z,39.40
2018-07-19T12:27:43.530Z,41.20
2018-07-19T12:30:11.980Z,41.10
2018-07-19T12:32:40.528Z,41.40
2018-07-19T12:35:11.986Z,41.60
2018-07-19T12:37:40.688Z,42.40
2018-07-19T12:40:09.241Z,42.70
2018-07-19T12:42:37.976Z,43.60
2018-07-19T12:45:06.461Z,43.60
2018-07-19T12:47:34.908Z,44.30
2018-07-19T12:50:03.777Z,43.60
2018-07-19T12:52:32.824Z,44.30
2018-07-19T12:55:01.312Z,45.00
2018-07-19T12:57:29.848Z,45.60
2018-07-19T13:00:01.326Z,45.30
2018-07-19T13:02:31.240Z,45.30
2018-07-19T13:04:59.748Z,45.30
2018-07-19T13:07:28.254Z,45.70
2018-07-19T13:10:04.772Z,44.00
2018-07-19T13:12:33.624Z,44.40
2018-07-19T13:15:03.598Z,44.80
2018-07-19T13:17:32.101Z,44.30
2018-07-19T13:20:00.564Z,44.60
2018-07-19T13:22:29.551Z,44.50
2018-07-19T13:24:58.351Z,44.70
2018-07-19T13:27:27.067Z,45.10
2018-07-19T13:29:55.553Z,45.20
2018-07-19T13:32:24.164Z,44.80
2018-07-19T13:34:52.665Z,44.50
2018-07-19T13:37:21.556Z,43.70
2018-07-19T13:39:50.682Z,43.80
2018-07-19T13:42:19.792Z,43.90
2018-07-19T13:44:49.826Z,44.00
2018-07-19T13:47:18.496Z,44.00
2018-07-19T13:49:47.145Z,43.80
2018-07-19T13:52:16.191Z,43.50
2018-07-19T13:54:48.299Z,44.10
2018-07-19T13:57:17.013Z,44.60
2018-07-19T13:59:45.676Z,43.50
2018-07-19T14:02:14.713Z,43.50
2018-07-19T14:04:43.403Z,43.10
2018-07-19T14:07:12.037Z,43.10
2018-07-19T14:09:41.294Z,43.50
2018-07-19T14:12:09.955Z,43.60
2018-07-19T14:14:38.606Z,44.00
2018-07-19T14:17:07.605Z,44.40
2018-07-19T14:19:36.296Z,43.30
2018-07-19T14:22:04.977Z,43.30
2018-07-19T14:27:02.168Z,43.00
2018-07-19T14:29:30.755Z,42.90
2018-07-19T14:31:59.359Z,42.60
2018-07-19T14:34:28.031Z,43.60
2018-07-19T14:39:24.982Z,42.70
2018-07-19T14:41:53.861Z,42.80
2018-07-19T14:44:22.560Z,42.80
2018-07-19T14:46:51.178Z,42.70
2018-07-19T14:49:19.820Z,43.80
2018-07-19T14:51:49.115Z,43.00
2018-07-19T14:54:17.739Z,43.30
2018-07-19T14:56:46.427Z,43.20
2018-07-19T14:59:15.046Z,42.90
2018-07-19T15:01:44.039Z,42.70
2018-07-19T15:04:12.707Z,43.00
2018-07-19T15:06:41.598Z,43.10
2018-07-19T15:09:11.342Z,43.30
2018-07-19T15:11:40.017Z,43.20
2018-07-19T15:14:08.691Z,43.40
2018-07-19T15:16:37.329Z,43.10
2018-07-19T15:19:06.366Z,43.70
2018-07-19T15:21:35.013Z,43.20
2018-07-19T15:24:03.689Z,43.80
2018-07-19T15:26:32.299Z,43.70
2018-07-19T15:29:00.908Z,43.70
2018-07-19T15:31:29.644Z,43.70
2018-07-19T15:33:58.289Z,43.60
2018-07-19T15:36:26.980Z,44.10
2018-07-19T15:38:55.734Z,43.40
2018-07-19T15:41:24.465Z,43.60
2018-07-19T15:43:53.078Z,43.90
2018-07-19T15:46:21.658Z,44.40
2018-07-19T15:48:50.400Z,44.50
2018-07-19T15:51:19.367Z,44.90
2018-07-19T15:53:47.952Z,45.00
2018-07-19T15:56:16.571Z,45.60
2018-07-19T15:58:45.259Z,45.00
2018-07-19T16:01:13.853Z,45.30
2018-07-19T16:03:42.481Z,44.90
2018-07-19T16:06:11.110Z,45.10
2018-07-19T16:08:39.902Z,45.00
2018-07-19T16:11:08.609Z,44.40
2018-07-19T16:13:37.603Z,44.60
2018-07-19T16:16:06.344Z,44.30
2018-07-19T16:18:34.943Z,44.50
2018-07-19T16:21:03.534Z,44.60
2018-07-19T16:23:32.507Z,44.90
2018-07-19T16:26:01.182Z,44.60
2018-07-19T16:28:29.973Z,44.10
2018-07-19T16:30:58.567Z,44.00
2018-07-19T16:33:27.164Z,42.80
2018-07-19T16:35:55.819Z,41.40
2018-07-19T16:38:24.712Z,41.00
2018-07-19T16:40:53.756Z,40.50
2018-07-19T16:43:22.431Z,40.70
2018-07-19T16:45:51.071Z,40.80
2018-07-19T16:48:19.753Z,40.30
2018-07-19T16:50:48.403Z,39.80
2018-07-19T16:53:16.996Z,38.70
2018-07-19T16:55:45.704Z,38.90
2018-07-19T16:58:14.556Z,39.20
2018-07-19T17:00:43.166Z,39.10
2018-07-19T17:03:11.702Z,39.00
2018-07-19T17:05:40.068Z,38.60
2018-07-19T17:08:08.475Z,38.40
2018-07-19T17:10:36.882Z,37.80
2018-07-19T17:13:05.370Z,37.90
2018-07-19T17:15:33.742Z,38.30
2018-07-19T17:18:02.451Z,38.40
2018-07-19T17:20:30.912Z,37.90
2018-07-19T17:23:00.053Z,38.20
2018-07-19T17:25:28.829Z,37.80
2018-07-19T17:27:57.332Z,37.70
2018-07-19T17:30:25.706Z,38.20
2018-07-19T17:32:54.316Z,39.30
2018-07-19T17:35:22.886Z,38.70
2018-07-19T17:37:51.298Z,38.80
2018-07-19T17:40:19.699Z,38.60
2018-07-19T17:42:48.123Z,39.10
2018-07-19T17:45:16.489Z,39.60
2018-07-19T17:47:44.866Z,39.80
2018-07-19T17:50:13.280Z,40.10
2018-07-19T17:52:41.724Z,40.10
2018-07-19T17:55:10.228Z,40.50
2018-07-19T17:57:39.213Z,40.10
2018-07-19T18:00:07.875Z,39.70
2018-07-19T18:02:36.353Z,40.50
2018-07-19T18:05:06.808Z,39.80
2018-07-19T18:07:35.578Z,40.20
2018-07-19T18:10:04.317Z,40.20
2018-07-19T18:12:32.721Z,40.40
2018-07-19T18:15:01.201Z,40.60
2018-07-19T18:17:29.673Z,40.10
2018-07-19T18:19:58.046Z,40.20
2018-07-19T18:22:26.464Z,39.90
2018-07-19T18:24:55.166Z,40.30
2018-07-19T18:27:23.628Z,40.00
2018-07-19T18:29:51.995Z,40.00
2018-07-19T18:32:20.328Z,39.80
2018-07-19T18:34:49.080Z,38.50
2018-07-19T18:37:17.544Z,37.80
2018-07-19T18:39:46.078Z,37.70
2018-07-19T18:42:14.444Z,38.00
2018-07-19T18:44:43.160Z,38.90
2018-07-19T18:47:11.679Z,38.60
2018-07-19T18:49:40.455Z,38.40
2018-07-19T18:52:08.949Z,38.40
2018-07-19T18:54:37.338Z,37.80
2018-07-19T18:57:06.733Z,37.40
2018-07-19T18:59:35.424Z,37.60
2018-07-19T19:02:03.850Z,38.10
2018-07-19T19:04:32.518Z,38.40
2018-07-19T19:07:01.105Z,38.80
2018-07-19T19:09:29.555Z,39.50
2018-07-19T19:11:57.984Z,39.90
2018-07-19T19:14:26.431Z,39.90
2018-07-19T19:16:55.280Z,40.50
2018-07-19T19:19:23.694Z,41.00
2018-07-19T19:21:52.537Z,41.40
2018-07-19T19:24:21.240Z,41.90
2018-07-19T19:26:49.613Z,42.70
2018-07-19T19:29:18.049Z,43.20
2018-07-19T19:31:46.832Z,43.30
2018-07-19T19:34:15.196Z,43.40
2018-07-19T19:36:43.627Z,44.00
2018-07-19T19:39:13.392Z,44.10
2018-07-19T19:41:42.253Z,44.30
2018-07-19T19:44:11.341Z,45.20
2018-07-19T19:46:40.737Z,45.00
2018-07-19T19:49:09.143Z,45.50
2018-07-19T19:51:37.596Z,45.90
2018-07-19T19:54:06.073Z,46.30
2018-07-19T19:56:34.501Z,46.50
2018-07-19T19:59:02.909Z,46.90
2018-07-19T20:01:31.303Z,47.20
2018-07-19T20:03:59.716Z,47.80
2018-07-19T20:06:28.086Z,48.10
2018-07-19T20:08:56.497Z,48.50
2018-07-19T20:11:24.924Z,49.00
2018-07-19T20:13:53.309Z,49.60
2018-07-19T20:16:21.749Z,51.10
2018-07-19T20:18:50.177Z,51.10
2018-07-19T20:21:18.806Z,51.50
2018-07-19T20:23:47.273Z,52.20
2018-07-19T20:26:15.773Z,52.90
2018-07-19T20:28:44.156Z,54.00
2018-07-19T20:31:12.546Z,54.90
2018-07-19T20:33:41.275Z,55.70
2018-07-19T20:36:09.654Z,56.20
2018-07-19T20:38:38.029Z,57.80
2018-07-19T20:41:06.492Z,58.00
2018-07-19T20:43:34.942Z,58.70
2018-07-19T20:46:03.344Z,59.10
2018-07-19T20:48:31.763Z,59.70
2018-07-19T20:51:00.190Z,61.10
2018-07-19T20:53:28.559Z,61.60
2018-07-19T20:55:57.046Z,62.80
2018-07-19T20:58:25.378Z,63.10
2018-07-19T21:00:53.754Z,63.50
2018-07-19T21:03:22.138Z,64.00
2018-07-19T21:05:50.897Z,64.50
2018-07-19T21:08:19.632Z,64.50
2018-07-19T21:10:48.317Z,64.60
2018-07-19T21:13:17.039Z,64.80
2018-07-19T21:15:45.555Z,65.60
2018-07-19T21:18:14.536Z,65.80
2018-07-19T21:25:39.906Z,66.30
2018-07-19T21:28:08.382Z,67.10
2018-07-19T21:30:36.732Z,67.40
2018-07-19T21:33:05.073Z,67.50
2018-07-19T21:35:33.459Z,67.80
2018-07-19T21:38:01.835Z,67.50
2018-07-19T21:40:30.945Z,67.50
2018-07-19T21:42:59.371Z,67.40
2018-07-19T21:45:27.696Z,67.60
2018-07-19T21:50:24.342Z,68.50
2018-07-19T21:52:53.032Z,68.80
2018-07-19T21:55:21.503Z,68.90
2018-07-19T21:57:50.177Z,69.20
2018-07-19T22:00:18.540Z,69.10
2018-07-19T22:02:47.049Z,69.50
2018-07-19T22:05:15.437Z,69.40
2018-07-19T22:07:43.848Z,69.20
2018-07-19T22:10:12.602Z,69.40
2018-07-19T22:12:41.306Z,69.20
2018-07-19T22:15:10.417Z,69.40
2018-07-19T22:17:38.753Z,68.70
2018-07-19T22:20:07.181Z,69.60
2018-07-19T22:22:35.662Z,68.70
2018-07-19T22:25:04.199Z,68.90
2018-07-19T22:27:32.542Z,69.10
2018-07-19T22:30:00.865Z,69.00
2018-07-19T22:32:29.180Z,69.30
2018-07-19T22:34:57.660Z,69.60
2018-07-19T22:37:26.091Z,70.00
2018-07-19T22:39:54.907Z,70.60
2018-07-19T22:42:23.376Z,70.80
2018-07-19T22:44:51.754Z,70.70
2018-07-19T22:47:20.156Z,71.20
2018-07-19T22:49:48.541Z,71.00
2018-07-19T22:52:16.931Z,71.00
2018-07-19T22:54:45.305Z,70.90
2018-07-19T22:57:13.757Z,71.20
2018-07-19T22:59:42.524Z,71.40
2018-07-19T23:02:11.422Z,71.80
2018-07-19T23:04:40.122Z,71.80
2018-07-19T23:07:08.560Z,71.80
2018-07-19T23:09:37.002Z,72.00
2018-07-19T23:12:05.606Z,71.90
2018-07-19T23:14:34.059Z,71.60
2018-07-19T23:17:02.532Z,71.60
2018-07-19T23:19:31.284Z,71.40
2018-07-19T23:21:59.706Z,71.80
2018-07-19T23:24:28.021Z,72.10
2018-07-19T23:29:24.589Z,72.70
2018-07-19T23:31:53.034Z,72.00
2018-07-19T23:34:21.409Z,72.00
2018-07-19T23:39:31.197Z,72.10
2018-07-19T23:42:09.509Z,72.60
2018-07-19T23:44:45.610Z,72.70
2018-07-19T23:47:18.141Z,72.70
2018-07-19T23:49:46.499Z,72.60
2018-07-19T23:52:14.922Z,72.40
2018-07-19T23:54:43.300Z,72.80
2018-07-19T23:57:11.760Z,73.00
2018-07-19T23:59:40.872Z,73.00
